createdAt,value
2022-08-28T00:00:15.851Z,17.50
2022-08-28T00:02:43.033Z,17.50
2022-08-28T00:05:11.914Z,17.50
2022-08-28T00:07:38.777Z,17.50
2022-08-28T00:10:06.288Z,17.50
2022-08-28T00:12:33.586Z,17.50
2022-08-28T00:15:00.282Z,17.50
2022-08-28T00:17:27.084Z,17.50
2022-08-28T00:19:53.929Z,17.50
2022-08-28T00:22:20.810Z,17.40
2022-08-28T00:24:48.199Z,17.50
2022-08-28T00:27:33.768Z,17.50
2022-08-28T00:30:00.890Z,17.50
2022-08-28T00:32:28.419Z,17.30
2022-08-28T00:34:55.273Z,17.30
2022-08-28T00:37:24.558Z,17.30
2022-08-28T00:39:51.622Z,17.40
2022-08-28T00:42:18.441Z,17.30
2022-08-28T00:44:45.486Z,17.30
2022-08-28T00:47:12.658Z,17.30
2022-08-28T00:49:45.334Z,17.20
2022-08-28T00:52:15.274Z,17.30
2022-08-28T00:54:59.187Z,17.30
2022-08-28T00:57:29.310Z,17.40
2022-08-28T00:59:55.990Z,17.40
2022-08-28T01:02:22.722Z,17.30
2022-08-28T01:04:50.769Z,17.40
2022-08-28T01:07:17.995Z,17.40
2022-08-28T01:09:46.433Z,17.40
2022-08-28T01:12:19.452Z,17.30
2022-08-28T01:14:47.469Z,17.40
2022-08-28T01:17:15.729Z,17.40
2022-08-28T01:19:57.202Z,17.40
2022-08-28T01:22:38.400Z,17.30
2022-08-28T01:25:07.481Z,17.30
2022-08-28T01:27:34.796Z,17.40
2022-08-28T01:30:01.704Z,17.30
2022-08-28T01:32:40.573Z,17.40
2022-08-28T01:35:09.683Z,17.30
2022-08-28T01:37:36.965Z,17.30
2022-08-28T01:40:05.171Z,17.40
2022-08-28T01:42:36.453Z,17.20
2022-08-28T01:45:03.376Z,17.20
2022-08-28T01:47:30.061Z,17.20
2022-08-28T01:49:56.701Z,17.20
2022-08-28T01:52:26.392Z,17.10
2022-08-28T01:54:53.704Z,17.20
2022-08-28T01:57:20.403Z,17.20
2022-08-28T01:59:49.552Z,17.20
2022-08-28T02:02:17.015Z,17.10
2022-08-28T02:04:47.942Z,17.20
2022-08-28T02:07:16.941Z,17.20
2022-08-28T02:09:45.364Z,17.20
2022-08-28T02:12:12.037Z,17.20
2022-08-28T02:14:38.883Z,17.10
2022-08-28T02:17:05.591Z,17.40
2022-08-28T02:19:32.346Z,17.00
2022-08-28T02:21:59.161Z,17.10
2022-08-28T02:24:25.873Z,17.20
2022-08-28T02:26:52.554Z,17.10
2022-08-28T02:29:19.562Z,17.10
2022-08-28T02:31:46.832Z,16.90
2022-08-28T02:34:14.858Z,17.00
2022-08-28T02:36:42.372Z,17.00
2022-08-28T02:39:09.076Z,17.00
2022-08-28T02:41:44.986Z,17.00
2022-08-28T02:44:11.766Z,16.90
2022-08-28T02:46:38.501Z,16.90
2022-08-28T02:49:05.357Z,16.90
2022-08-28T02:51:34.023Z,16.90
2022-08-28T02:54:00.919Z,16.80
2022-08-28T02:56:28.223Z,16.90
2022-08-28T02:58:56.595Z,16.90
2022-08-28T03:01:23.665Z,16.80
2022-08-28T03:03:56.681Z,16.80
2022-08-28T03:06:24.175Z,16.80
2022-08-28T03:08:50.895Z,16.70
2022-08-28T03:11:17.697Z,16.70
2022-08-28T03:13:44.588Z,16.70
2022-08-28T03:16:11.600Z,16.60
2022-08-28T03:18:39.781Z,16.70
2022-08-28T03:21:07.503Z,16.70
2022-08-28T03:23:34.941Z,16.60
2022-08-28T03:26:06.164Z,16.60
2022-08-28T03:28:34.226Z,16.60
2022-08-28T03:31:01.243Z,16.60
2022-08-28T03:33:28.270Z,16.60
2022-08-28T03:35:55.639Z,16.60
2022-08-28T03:38:22.561Z,16.60
2022-08-28T03:40:52.207Z,16.60
2022-08-28T03:43:20.732Z,16.50
2022-08-28T03:45:52.383Z,16.50
2022-08-28T03:48:20.150Z,16.40
2022-08-28T03:50:47.486Z,16.40
2022-08-28T03:53:15.991Z,16.40
2022-08-28T03:55:42.735Z,16.40
2022-08-28T03:58:09.518Z,16.40
2022-08-28T04:00:36.352Z,16.40
2022-08-28T04:03:03.061Z,16.30
2022-08-28T04:05:29.993Z,16.30
2022-08-28T04:07:56.763Z,16.30
2022-08-28T04:10:24.229Z,16.30
2022-08-28T04:12:52.623Z,16.20
2022-08-28T04:15:20.316Z,16.10
2022-08-28T04:17:46.986Z,16.10
2022-08-28T04:20:13.747Z,16.10
2022-08-28T04:22:40.415Z,16.00
2022-08-28T04:25:07.749Z,16.00
2022-08-28T04:27:34.405Z,16.10
2022-08-28T04:30:01.146Z,16.10
2022-08-28T04:32:27.841Z,16.00
2022-08-28T04:34:54.715Z,16.00
2022-08-28T04:37:21.456Z,15.90
2022-08-28T04:39:51.353Z,15.90
2022-08-28T04:42:18.108Z,15.80
2022-08-28T04:44:44.902Z,15.90
2022-08-28T04:47:11.643Z,15.90
2022-08-28T04:49:38.334Z,15.90
2022-08-28T04:52:05.083Z,15.90
2022-08-28T04:54:33.370Z,16.00
2022-08-28T04:57:00.550Z,15.90
2022-08-28T04:59:27.757Z,15.90
2022-08-28T05:01:54.460Z,15.90
2022-08-28T05:04:21.319Z,15.80
2022-08-28T05:06:48.358Z,15.90
2022-08-28T05:09:16.376Z,15.90
2022-08-28T05:11:44.228Z,16.00
2022-08-28T05:14:15.757Z,16.10
2022-08-28T05:16:44.087Z,16.00
2022-08-28T05:19:11.344Z,16.10
2022-08-28T05:21:38.793Z,16.00
2022-08-28T05:24:06.422Z,16.10
2022-08-28T05:26:33.765Z,16.10
2022-08-28T05:29:01.816Z,16.10
2022-08-28T05:31:29.731Z,16.10
2022-08-28T05:33:57.235Z,16.10
2022-08-28T05:36:25.946Z,16.20
2022-08-28T05:39:00.459Z,16.20
2022-08-28T05:41:30.196Z,16.10
2022-08-28T05:44:01.533Z,16.20
2022-08-28T05:46:28.703Z,16.10
2022-08-28T05:48:55.878Z,16.30
2022-08-28T05:51:23.098Z,16.20
2022-08-28T05:53:51.403Z,16.20
2022-08-28T05:56:19.373Z,16.30
2022-08-28T05:58:46.171Z,16.20
2022-08-28T06:01:12.892Z,16.10
2022-08-28T06:03:40.605Z,16.20
2022-08-28T06:06:08.286Z,16.00
2022-08-28T06:08:35.898Z,16.00
2022-08-28T06:11:03.156Z,16.00
2022-08-28T06:13:30.092Z,16.00
2022-08-28T06:15:56.973Z,16.00
2022-08-28T06:18:24.308Z,15.90
2022-08-28T06:20:51.268Z,16.00
2022-08-28T06:23:23.858Z,15.90
2022-08-28T06:25:51.551Z,15.90
2022-08-28T06:28:20.153Z,15.90
2022-08-28T06:31:17.922Z,15.80
2022-08-28T06:33:34.139Z,15.70
2022-08-28T06:36:03.222Z,15.60
2022-08-28T06:38:30.362Z,16.00
2022-08-28T06:40:57.150Z,15.90
2022-08-28T06:43:24.929Z,15.90
2022-08-28T06:45:56.006Z,15.90
2022-08-28T06:48:24.463Z,16.00
2022-08-28T06:50:53.099Z,16.10
2022-08-28T06:53:20.535Z,15.90
2022-08-28T06:55:55.801Z,15.90
2022-08-28T06:58:22.529Z,15.90
2022-08-28T07:00:59.624Z,16.00
2022-08-28T07:03:30.532Z,15.80
2022-08-28T07:05:58.122Z,16.00
2022-08-28T07:08:25.783Z,16.00
2022-08-28T07:10:54.019Z,16.00
2022-08-28T07:13:21.807Z,16.00
2022-08-28T07:15:48.718Z,16.00
2022-08-28T07:18:15.595Z,16.10
2022-08-28T07:20:42.271Z,16.10
2022-08-28T07:23:09.376Z,16.20
2022-08-28T07:25:39.367Z,16.10
2022-08-28T07:28:06.916Z,16.30
2022-08-28T07:30:33.921Z,16.10
2022-08-28T07:33:00.649Z,16.20
2022-08-28T07:35:27.458Z,16.20
2022-08-28T07:37:54.183Z,16.30
2022-08-28T07:40:22.444Z,16.30
2022-08-28T07:43:08.050Z,16.30
2022-08-28T07:45:35.942Z,16.30
2022-08-28T07:48:06.586Z,16.30
2022-08-28T07:50:35.340Z,16.30
2022-08-28T07:53:02.033Z,16.40
2022-08-28T07:55:31.030Z,16.50
2022-08-28T07:57:57.760Z,16.60
2022-08-28T08:00:24.577Z,16.70
2022-08-28T08:02:51.637Z,16.80
2022-08-28T08:05:18.334Z,16.90
2022-08-28T08:07:45.271Z,16.90
2022-08-28T08:10:20.616Z,16.80
2022-08-28T08:12:47.631Z,16.90
2022-08-28T08:15:14.643Z,17.00
2022-08-28T08:17:41.474Z,17.20
2022-08-28T08:20:08.711Z,17.40
2022-08-28T08:22:35.916Z,17.40
2022-08-28T08:25:05.365Z,17.60
2022-08-28T08:27:32.773Z,17.70
2022-08-28T08:29:59.819Z,17.70
2022-08-28T08:32:26.807Z,17.80
2022-08-28T08:34:54.384Z,17.90
2022-08-28T08:37:21.058Z,17.90
2022-08-28T08:39:48.011Z,18.00
2022-08-28T08:42:22.925Z,18.30
2022-08-28T08:44:50.077Z,18.30
2022-08-28T08:47:29.248Z,18.30
2022-08-28T08:49:57.332Z,18.40
2022-08-28T08:52:23.966Z,18.40
2022-08-28T08:55:10.031Z,18.40
2022-08-28T08:57:37.984Z,18.30
2022-08-28T09:00:12.396Z,18.20
2022-08-28T09:02:48.640Z,18.20
2022-08-28T09:05:22.873Z,18.30
2022-08-28T09:07:54.222Z,18.20
2022-08-28T09:10:20.939Z,18.20
2022-08-28T09:12:54.391Z,18.30
2022-08-28T09:15:42.656Z,18.20
2022-08-28T09:18:28.200Z,18.00
2022-08-28T09:20:56.600Z,18.10
2022-08-28T09:23:23.886Z,18.20
2022-08-28T09:25:52.282Z,18.10
2022-08-28T09:28:24.205Z,18.20
2022-08-28T09:31:18.966Z,18.10
2022-08-28T09:33:48.553Z,18.00
2022-08-28T09:36:27.605Z,18.00
2022-08-28T09:39:05.050Z,18.10
2022-08-28T09:41:50.538Z,18.10
2022-08-28T09:44:17.289Z,18.10
2022-08-28T09:46:48.000Z,18.10
2022-08-28T09:49:14.963Z,18.20
2022-08-28T09:51:41.955Z,18.20
2022-08-28T09:54:15.697Z,18.20
2022-08-28T09:56:42.759Z,18.20
2022-08-28T09:59:12.010Z,18.20
2022-08-28T10:01:44.800Z,18.30
2022-08-28T10:04:20.946Z,18.40
2022-08-28T10:06:55.426Z,18.40
2022-08-28T10:09:47.735Z,18.50
2022-08-28T10:12:17.989Z,18.70
2022-08-28T10:14:49.750Z,18.90
2022-08-28T10:17:28.753Z,19.10
2022-08-28T10:20:01.965Z,19.20
2022-08-28T10:22:47.534Z,19.30
2022-08-28T10:25:30.861Z,19.30
2022-08-28T10:28:14.162Z,19.20
2022-08-28T10:30:59.623Z,19.20
2022-08-28T10:33:26.521Z,19.20
2022-08-28T10:35:57.288Z,19.20
2022-08-28T10:38:29.339Z,19.20
2022-08-28T10:41:01.602Z,19.20
2022-08-28T10:43:31.371Z,19.20
2022-08-28T10:46:04.038Z,19.10
2022-08-28T10:48:42.787Z,19.10
2022-08-28T10:51:13.279Z,19.20
2022-08-28T10:53:43.815Z,19.20
2022-08-28T10:56:14.636Z,19.20
2022-08-28T10:58:41.428Z,19.10
2022-08-28T11:01:11.424Z,19.10
2022-08-28T11:03:43.196Z,19.00
2022-08-28T11:06:25.295Z,19.00
2022-08-28T11:08:54.786Z,19.10
2022-08-28T11:11:40.987Z,19.10
2022-08-28T11:14:08.031Z,19.20
2022-08-28T11:16:34.712Z,19.40
2022-08-28T11:19:01.636Z,19.50
2022-08-28T11:21:48.831Z,19.70
2022-08-28T11:24:28.229Z,19.80
2022-08-28T11:27:01.064Z,19.80
2022-08-28T11:29:46.515Z,19.90
2022-08-28T11:32:31.907Z,19.80
2022-08-28T11:34:58.964Z,19.60
2022-08-28T11:37:45.573Z,19.60
2022-08-28T11:40:21.137Z,19.70
2022-08-28T11:42:50.695Z,19.70
2022-08-28T11:45:40.396Z,19.70
2022-08-28T11:48:28.407Z,19.80
2022-08-28T11:50:55.056Z,19.90
2022-08-28T11:53:33.454Z,20.00
2022-08-28T11:56:00.473Z,20.10
2022-08-28T11:58:47.194Z,20.20
2022-08-28T12:01:25.970Z,20.30
2022-08-28T12:03:58.299Z,20.30
2022-08-28T12:06:44.099Z,20.40
2022-08-28T12:09:11.830Z,20.40
2022-08-28T12:11:44.977Z,20.50
2022-08-28T12:14:13.183Z,20.60
2022-08-28T12:17:07.611Z,20.70
2022-08-28T12:19:54.645Z,20.90
2022-08-28T12:22:24.545Z,21.10
2022-08-28T12:24:59.459Z,21.10
2022-08-28T12:27:26.512Z,21.20
2022-08-28T12:29:55.002Z,21.30
2022-08-28T12:32:33.566Z,21.40
2022-08-28T12:35:01.372Z,21.40
2022-08-28T12:37:51.362Z,21.50
2022-08-28T12:40:27.689Z,21.60
2022-08-28T12:42:56.471Z,21.60
2022-08-28T12:45:27.264Z,21.60
2022-08-28T12:47:56.063Z,21.50
2022-08-28T12:50:30.555Z,21.50
2022-08-28T12:52:58.706Z,21.40
2022-08-28T12:55:25.463Z,21.50
2022-08-28T12:57:52.838Z,21.50
2022-08-28T13:00:24.319Z,21.40
2022-08-28T13:02:53.331Z,21.40
2022-08-28T13:05:27.947Z,21.60
2022-08-28T13:07:55.251Z,21.40
2022-08-28T13:10:22.035Z,21.40
2022-08-28T13:12:59.708Z,21.40
2022-08-28T13:15:46.061Z,21.50
2022-08-28T13:18:33.227Z,21.60
2022-08-28T13:21:28.672Z,21.70
2022-08-28T13:24:21.301Z,21.80
2022-08-28T13:26:59.110Z,21.90
2022-08-28T13:29:25.936Z,21.80
2022-08-28T13:31:59.752Z,21.80
2022-08-28T13:34:36.812Z,21.90
2022-08-28T13:37:20.566Z,22.00
2022-08-28T13:39:47.457Z,21.90
2022-08-28T13:42:16.130Z,21.80
2022-08-28T13:44:46.764Z,21.70
2022-08-28T13:47:14.022Z,21.50
2022-08-28T13:49:40.679Z,21.40
2022-08-28T13:52:07.724Z,21.30
2022-08-28T13:54:36.825Z,21.30
2022-08-28T13:57:04.176Z,21.20
2022-08-28T13:59:31.615Z,21.10
2022-08-28T14:02:18.675Z,21.00
2022-08-28T14:04:45.384Z,20.90
2022-08-28T14:07:12.932Z,20.90
2022-08-28T14:09:40.133Z,20.80
2022-08-28T14:12:08.848Z,20.70
2022-08-28T14:14:36.040Z,20.60
2022-08-28T14:17:03.546Z,20.70
2022-08-28T14:19:30.561Z,20.60
2022-08-28T14:21:57.583Z,20.50
2022-08-28T14:24:24.694Z,20.60
2022-08-28T14:26:51.669Z,20.50
2022-08-28T14:29:18.813Z,20.50
2022-08-28T14:31:46.002Z,20.50
2022-08-28T14:34:22.721Z,20.50
2022-08-28T14:36:55.315Z,20.50
2022-08-28T14:39:23.312Z,20.60
2022-08-28T14:41:51.699Z,20.70
2022-08-28T14:44:19.112Z,20.80
2022-08-28T14:46:46.659Z,20.80
2022-08-28T14:49:14.770Z,20.80
2022-08-28T14:51:42.454Z,20.80
2022-08-28T14:54:11.051Z,20.80
2022-08-28T14:56:37.856Z,20.80
2022-08-28T14:59:05.998Z,20.70
2022-08-28T15:01:40.375Z,20.70
2022-08-28T15:04:11.092Z,20.70
2022-08-28T15:06:38.221Z,20.70
2022-08-28T15:09:04.980Z,20.70
2022-08-28T15:11:31.621Z,20.70
2022-08-28T15:13:58.644Z,20.70
2022-08-28T15:16:30.181Z,20.70
2022-08-28T15:18:58.699Z,20.70
2022-08-28T15:21:25.414Z,20.80
2022-08-28T15:23:53.065Z,21.00
2022-08-28T15:26:20.805Z,21.00
2022-08-28T15:28:47.968Z,20.90
2022-08-28T15:31:15.495Z,20.80
2022-08-28T15:33:45.363Z,20.80
2022-08-28T15:36:12.811Z,20.80
2022-08-28T15:38:58.395Z,20.90
2022-08-28T15:41:26.219Z,20.90
2022-08-28T15:43:53.717Z,20.90
2022-08-28T15:46:21.274Z,20.90
2022-08-28T15:48:49.702Z,20.90
2022-08-28T15:51:17.746Z,20.90
2022-08-28T15:53:46.133Z,20.90
2022-08-28T15:56:13.277Z,20.90
2022-08-28T15:58:40.222Z,20.90
2022-08-28T16:01:07.957Z,20.90
2022-08-28T16:03:35.294Z,21.00
2022-08-28T16:06:02.551Z,21.00
2022-08-28T16:08:29.214Z,21.00
2022-08-28T16:10:56.743Z,21.00
2022-08-28T16:13:23.742Z,21.00
2022-08-28T16:15:50.574Z,21.10
2022-08-28T16:18:17.334Z,21.10
2022-08-28T16:20:44.700Z,21.20
2022-08-28T16:23:12.366Z,21.10
2022-08-28T16:25:39.723Z,21.10
2022-08-28T16:28:06.990Z,21.10
2022-08-28T16:30:37.501Z,21.00
2022-08-28T16:33:10.598Z,21.00
2022-08-28T16:35:42.465Z,20.90
2022-08-28T16:38:16.440Z,20.80
2022-08-28T16:40:46.589Z,20.70
2022-08-28T16:43:13.737Z,20.60
2022-08-28T16:45:44.831Z,20.60
2022-08-28T16:48:12.832Z,20.60
2022-08-28T16:50:40.627Z,20.50
2022-08-28T16:53:07.738Z,20.50
2022-08-28T16:55:34.783Z,20.40
2022-08-28T16:58:01.736Z,20.30
2022-08-28T17:00:28.596Z,20.40
2022-08-28T17:02:55.297Z,20.30
2022-08-28T17:05:23.073Z,20.20
2022-08-28T17:07:49.812Z,20.10
2022-08-28T17:10:17.737Z,20.00
2022-08-28T17:12:44.458Z,19.90
2022-08-28T17:15:11.523Z,20.00
2022-08-28T17:17:38.665Z,19.80
2022-08-28T17:20:06.037Z,19.80
2022-08-28T17:22:32.798Z,19.80
2022-08-28T17:25:04.806Z,19.70
2022-08-28T17:27:32.271Z,19.70
2022-08-28T17:29:59.107Z,19.60
2022-08-28T17:32:25.938Z,19.50
2022-08-28T17:34:53.048Z,19.40
2022-08-28T17:37:20.832Z,19.30
2022-08-28T17:39:47.825Z,19.20
2022-08-28T17:42:14.639Z,19.10
2022-08-28T17:44:41.314Z,18.90
2022-08-28T17:47:08.123Z,18.70
2022-08-28T17:49:34.869Z,18.70
2022-08-28T17:52:02.263Z,18.60
2022-08-28T17:54:29.162Z,18.40
2022-08-28T17:56:56.153Z,18.30
2022-08-28T17:59:24.025Z,18.20
2022-08-28T18:01:50.842Z,18.10
2022-08-28T18:04:23.665Z,18.10
2022-08-28T18:06:54.883Z,18.00
2022-08-28T18:09:22.752Z,17.80
2022-08-28T18:11:49.991Z,17.70
2022-08-28T18:14:16.735Z,17.90
2022-08-28T18:16:43.709Z,17.80
2022-08-28T18:19:11.006Z,17.80
2022-08-28T18:21:38.328Z,17.70
2022-08-28T18:24:05.730Z,17.70
2022-08-28T18:26:32.506Z,17.70
2022-08-28T18:28:59.439Z,17.60
2022-08-28T18:31:26.566Z,17.40
2022-08-28T18:33:54.361Z,17.40
2022-08-28T18:36:23.093Z,17.30
2022-08-28T18:38:50.306Z,17.30
2022-08-28T18:41:17.136Z,17.20
2022-08-28T18:43:43.791Z,17.20
2022-08-28T18:46:10.822Z,17.20
2022-08-28T18:48:37.729Z,17.10
2022-08-28T18:51:07.785Z,16.90
2022-08-28T18:53:34.497Z,16.90
2022-08-28T18:56:02.602Z,16.80
2022-08-28T18:58:29.512Z,16.80
2022-08-28T19:00:57.102Z,16.80
2022-08-28T19:03:24.007Z,16.70
2022-08-28T19:05:51.903Z,16.70
2022-08-28T19:08:18.823Z,16.70
2022-08-28T19:10:45.575Z,16.50
2022-08-28T19:13:12.253Z,16.50
2022-08-28T19:15:39.083Z,16.40
2022-08-28T19:18:06.390Z,16.30
2022-08-28T19:20:33.502Z,16.30
2022-08-28T19:23:00.456Z,16.20
2022-08-28T19:25:29.263Z,16.10
2022-08-28T19:27:59.831Z,16.10
2022-08-28T19:30:27.997Z,16.10
2022-08-28T19:32:55.151Z,16.20
2022-08-28T19:35:24.135Z,16.00
2022-08-28T19:37:54.536Z,15.90
2022-08-28T19:40:21.600Z,15.80
2022-08-28T19:42:50.008Z,15.70
2022-08-28T19:45:17.808Z,15.70
2022-08-28T19:47:44.718Z,15.70
2022-08-28T19:50:12.003Z,15.60
2022-08-28T19:52:39.225Z,15.70
2022-08-28T19:55:06.710Z,15.70
2022-08-28T19:57:33.939Z,15.60
2022-08-28T20:00:00.605Z,15.60
2022-08-28T20:02:28.653Z,15.70
2022-08-28T20:04:55.450Z,15.50
2022-08-28T20:07:22.378Z,15.40
2022-08-28T20:09:49.163Z,15.40
2022-08-28T20:12:16.112Z,15.40
2022-08-28T20:14:44.709Z,15.30
2022-08-28T20:17:11.988Z,15.40
2022-08-28T20:19:38.771Z,15.30
2022-08-28T20:22:05.541Z,15.40
2022-08-28T20:24:32.472Z,15.30
2022-08-28T20:26:59.364Z,15.20
2022-08-28T20:29:26.095Z,15.10
2022-08-28T20:31:52.966Z,15.10
2022-08-28T20:34:20.377Z,15.10
2022-08-28T20:36:47.519Z,15.20
2022-08-28T20:39:14.836Z,15.10
2022-08-28T20:41:42.825Z,15.00
2022-08-28T20:44:10.478Z,15.00
2022-08-28T20:46:41.279Z,14.90
2022-08-28T20:49:10.167Z,14.90
2022-08-28T20:51:55.630Z,14.90
2022-08-28T20:54:27.550Z,14.90
2022-08-28T20:56:55.203Z,14.80
2022-08-28T20:59:22.281Z,14.80
2022-08-28T21:01:50.253Z,14.70
2022-08-28T21:04:17.798Z,14.80
2022-08-28T21:06:46.795Z,14.70
2022-08-28T21:09:14.967Z,14.70
2022-08-28T21:11:41.855Z,14.70
2022-08-28T21:14:08.771Z,14.60
2022-08-28T21:16:35.661Z,14.50
2022-08-28T21:19:15.636Z,14.60
2022-08-28T21:21:43.867Z,14.60
2022-08-28T21:24:12.372Z,14.40
2022-08-28T21:26:43.255Z,14.40
2022-08-28T21:29:10.423Z,14.40
2022-08-28T21:31:40.846Z,14.30
2022-08-28T21:34:09.428Z,14.30
2022-08-28T21:36:38.059Z,14.30
2022-08-28T21:39:05.909Z,14.30
2022-08-28T21:41:33.407Z,14.30
2022-08-28T21:44:00.349Z,14.40
2022-08-28T21:46:27.792Z,14.40
2022-08-28T21:48:56.268Z,14.40
2022-08-28T21:51:23.763Z,14.30
2022-08-28T21:53:51.683Z,14.30
2022-08-28T21:56:20.106Z,14.10
2022-08-28T21:58:46.741Z,14.10
2022-08-28T22:04:08.437Z,14.10
2022-08-28T22:06:35.427Z,14.10
2022-08-28T22:09:04.662Z,14.10
2022-08-28T22:11:31.710Z,14.00
2022-08-28T22:13:58.655Z,14.00
2022-08-28T22:16:26.820Z,14.00
2022-08-28T22:18:53.610Z,13.90
2022-08-28T22:21:40.894Z,13.80
2022-08-28T22:24:08.049Z,13.80
2022-08-28T22:26:34.845Z,13.90
2022-08-28T22:29:01.801Z,14.00
2022-08-28T22:31:29.531Z,14.10
2022-08-28T22:33:56.226Z,14.00
2022-08-28T22:36:22.879Z,14.00
2022-08-28T22:38:53.537Z,13.90
2022-08-28T22:41:20.676Z,13.90
2022-08-28T22:43:48.314Z,13.90
2022-08-28T22:46:17.516Z,13.90
2022-08-28T22:48:45.290Z,13.90
2022-08-28T22:51:14.757Z,13.90
2022-08-28T22:53:42.341Z,13.80
2022-08-28T22:56:09.327Z,13.70
2022-08-28T22:58:36.259Z,13.60
2022-08-28T23:01:05.954Z,13.50
2022-08-28T23:03:32.732Z,13.60
2022-08-28T23:05:59.516Z,13.60
2022-08-28T23:08:29.639Z,13.50
2022-08-28T23:10:59.628Z,13.50
2022-08-28T23:13:26.835Z,13.40
2022-08-28T23:15:53.814Z,13.30
2022-08-28T23:18:21.178Z,13.30
2022-08-28T23:20:50.698Z,13.30
2022-08-28T23:23:18.662Z,13.20
2022-08-28T23:25:45.587Z,13.30
2022-08-28T23:28:12.484Z,13.30
2022-08-28T23:30:44.094Z,13.30
2022-08-28T23:33:23.156Z,13.30
2022-08-28T23:35:51.353Z,13.30
2022-08-28T23:38:18.034Z,13.20
2022-08-28T23:40:44.731Z,13.20
2022-08-28T23:43:11.819Z,13.20
2022-08-28T23:45:39.439Z,13.20
2022-08-28T23:48:06.492Z,13.10
2022-08-28T23:50:33.458Z,13.20
2022-08-28T23:53:02.073Z,13.10
2022-08-28T23:55:29.023Z,13.10
2022-08-28T23:57:55.808Z,13.20
